Strona główna
METAR-TAF:

METAR-TAF

Lotnisko :

Laconia Municipal Airport

Laconia, New Hampshire, Stany Zjednoczone

Szerokość geograficzna: 43-34N, Długość geograficzna: 071-25W, wysokość: 166 m

Aktualna obserwacja pogody

Raport powstał 57 minut temu, godzina 05:56 UTC
Wiatr 4 kt od zachodnio-południowy zachód
Temperatura -4°C
Wilgotność 86%
Ciśnienie 1017 hPa
Widzialność: 16.1 km
bezchmurnie

METAR: KLCI 240556Z AUTO 25004KT 10SM CLR M04/M06 A3002 RMK AO2 SLP170 T10441056 10011 21044 58004 FZRANO

czas: 01:53 (06:53 UTC)


TAF: brakujący

Obserwacja i prognoza pogody dla ponad 4000 lotnisk (raport METAR i TAF).

Dostępne stacje oznaczono żółtymi i czerwonymi punktami na mapie.

Najedź kursorem aby zobaczyć nazwę stacji.

Kliknij aby zobaczyć obserwacje i prognozy pogody.

Aby zmienić mapę: kliknij na zielony przycisk z czarnym krzyżykiem, aby powiększyć; na zielony przycisk z myślnikiem, aby pomniejszyć; na zielone strzałki, aby przejść do map sąsiednich.


METAR-TAF: